Time;durP1;ratioP1;P1;durP2;ratioP2;P2;SDS_P1;SDS_P2;PMS_P1;PMS_P2;Temp;Humidity;BMP_temperature;BMP_pressure;BME280_temperature;BME280_humidity;BME280_pressure;Samples;Min_cycle;Max_cycle;Signal;HPM_P1;HPM_P2
2023/04/06 00:00:50;;;;;;;25.73;13.70;;;;;;;16.46;37.09;93467.97;4980436;28;20536;-88
2023/04/06 00:03:15;;;;;;;22.75;14.77;;;;;;;16.45;37.19;93466.53;4985809;28;20117;-87
2023/04/06 00:05:41;;;;;;;21.48;13.75;;;;;;;16.43;36.79;93461.56;4986714;28;20362;-88
2023/04/06 00:08:07;;;;;;;23.45;14.05;;;;;;;16.41;36.94;93464.03;4986341;28;20039;-89
2023/04/06 00:10:32;;;;;;;24.02;14.13;;;;;;;16.43;37.04;93458.84;4986737;28;20568;-87
2023/04/06 00:12:58;;;;;;;22.88;14.90;;;;;;;16.46;36.87;93457.06;4986227;28;20046;-87
2023/04/06 00:15:23;;;;;;;20.42;14.25;;;;;;;16.38;37.22;93459.56;4985863;28;20825;-89
2023/04/06 00:17:49;;;;;;;22.42;13.73;;;;;;;16.39;37.01;93463.78;4981576;28;20089;-88
2023/04/06 00:20:15;;;;;;;20.60;14.02;;;;;;;16.39;37.05;93461.06;4985001;28;20520;-88
2023/04/06 00:22:40;;;;;;;22.83;14.15;;;;;;;16.44;37.09;93456.84;4972754;28;20042;-89
2023/04/06 00:25:06;;;;;;;22.05;13.82;;;;;;;16.41;36.83;93457.84;4956222;28;20081;-88
2023/04/06 00:27:32;;;;;;;23.65;13.70;;;;;;;16.41;36.92;93453.13;4954152;28;20537;-88
2023/04/06 00:29:57;;;;;;;24.50;13.68;;;;;;;16.41;36.83;93439.47;4986354;28;20058;-89
2023/04/06 00:32:22;;;;;;;23.02;13.95;;;;;;;16.44;37.22;93451.38;5000831;28;20520;-88
2023/04/06 00:34:48;;;;;;;23.30;14.13;;;;;;;16.43;37.03;93441.72;4954345;28;20464;-88
2023/04/06 00:37:13;;;;;;;23.67;13.60;;;;;;;16.44;37.08;93437.75;4953670;28;20057;-88
2023/04/06 00:39:39;;;;;;;23.33;13.55;;;;;;;16.42;36.85;93437.50;4969900;28;20041;-88
2023/04/06 00:42:09;;;;;;;19.73;13.68;;;;;;;16.39;37.45;93439.22;4939414;28;20035;-88
2023/04/06 00:44:34;;;;;;;23.55;13.65;;;;;;;16.43;36.99;93437.00;4960349;28;20043;-87
2023/04/06 00:47:00;;;;;;;22.10;13.35;;;;;;;16.43;37.13;93439.00;4967037;28;20417;-90
2023/04/06 00:49:26;;;;;;;25.08;14.38;;;;;;;16.40;37.29;93439.97;4973399;28;20382;-89
2023/04/06 00:51:55;;;;;;;20.48;13.02;;;;;;;16.37;37.31;93432.78;4957299;28;20050;-89
2023/04/06 00:54:20;;;;;;;23.30;13.48;;;;;;;16.36;37.23;93420.38;4975673;28;20130;-89
2023/04/06 00:56:45;;;;;;;19.58;12.60;;;;;;;16.44;36.89;93432.28;4941200;28;20035;-88
2023/04/06 00:59:11;;;;;;;22.90;13.10;;;;;;;16.37;37.49;93428.06;4940166;28;20034;-88
2023/04/06 01:01:37;;;;;;;20.17;13.20;;;;;;;16.37;37.07;93427.31;4972043;28;20054;-88
2023/04/06 01:04:02;;;;;;;19.55;11.90;;;;;;;16.45;36.83;93428.31;4972322;28;20398;-88
2023/04/06 01:06:28;;;;;;;19.30;12.73;;;;;;;16.37;37.16;93436.25;4972779;28;20057;-88
2023/04/06 01:08:53;;;;;;;21.60;12.45;;;;;;;16.39;37.05;93433.78;4989620;28;20539;-89
2023/04/06 01:11:19;;;;;;;19.08;12.45;;;;;;;16.39;36.96;93422.13;4989390;28;20050;-87
2023/04/06 01:13:44;;;;;;;18.98;13.05;;;;;;;16.33;37.61;93430.31;4989174;28;20042;-89
2023/04/06 01:16:10;;;;;;;20.73;12.70;;;;;;;16.41;37.25;93430.56;4974762;28;20135;-88
2023/04/06 01:18:37;;;;;;;16.95;11.65;;;;;;;16.33;37.19;93424.09;4947758;28;20035;-89
2023/04/06 01:21:02;;;;;;;20.27;12.60;;;;;;;16.34;37.25;93428.31;4956621;28;20042;-88
2023/04/06 01:23:28;;;;;;;21.63;12.15;;;;;;;16.32;37.35;93420.63;4954225;28;20577;-88
2023/04/06 01:25:53;;;;;;;17.58;12.15;;;;;;;16.33;37.12;93426.81;4956714;28;20035;-87
2023/04/06 01:28:18;;;;;;;19.63;12.48;;;;;;;16.31;37.36;93421.88;4953092;28;20038;-89
2023/04/06 01:30:44;;;;;;;18.40;11.98;;;;;;;16.34;37.48;93415.41;4972170;28;20122;-87
2023/04/06 01:33:10;;;;;;;18.90;11.73;;;;;;;16.31;37.14;93418.41;4955969;28;20089;-87
2023/04/06 01:35:36;;;;;;;19.02;12.45;;;;;;;16.34;37.41;93415.41;4956646;28;20065;-88
2023/04/06 01:38:01;;;;;;;17.58;11.88;;;;;;;16.29;37.23;93413.44;4940782;28;20035;-89
2023/04/06 01:40:27;;;;;;;17.98;11.07;;;;;;;16.35;37.15;93424.34;4989558;28;20061;-90
2023/04/06 01:42:52;;;;;;;20.95;12.60;;;;;;;16.35;37.45;93416.91;4952936;28;20050;-89
2023/04/06 01:45:18;;;;;;;17.35;11.32;;;;;;;16.36;37.31;93412.19;4940406;28;20046;-88
2023/04/06 01:47:43;;;;;;;20.45;12.35;;;;;;;16.37;37.23;93410.97;4956374;28;20046;-89
2023/04/06 01:50:09;;;;;;;20.90;12.43;;;;;;;16.36;37.43;93414.94;4955976;28;20065;-88
2023/04/06 01:52:34;;;;;;;16.20;11.15;;;;;;;16.37;37.06;93419.13;4955846;28;20046;-89
2023/04/06 01:55:00;;;;;;;20.08;12.07;;;;;;;16.36;37.23;93421.13;4971869;28;20105;-89
2023/04/06 01:57:25;;;;;;;17.73;11.15;;;;;;;16.39;37.10;93403.75;4955720;28;20116;-89
2023/04/06 01:59:51;;;;;;;19.05;11.38;;;;;;;16.40;37.27;93409.97;4959737;28;20517;-89
2023/04/06 02:02:17;;;;;;;20.05;11.10;;;;;;;16.39;37.00;93408.47;4936177;28;20039;-88
2023/04/06 02:04:42;;;;;;;15.50;11.27;;;;;;;16.40;37.42;93410.72;4971895;28;20042;-88
2023/04/06 02:07:07;;;;;;;15.82;10.82;;;;;;;16.35;37.20;93416.16;4955520;28;20054;-87
2023/04/06 02:09:33;;;;;;;18.30;11.32;;;;;;;16.34;37.58;93415.41;4956203;28;20039;-88
2023/04/06 02:11:58;;;;;;;17.67;11.05;;;;;;;16.37;37.03;93419.13;4956024;28;20045;-88
2023/04/06 02:14:25;;;;;;;19.45;11.63;;;;;;;16.34;37.31;93409.97;4977854;28;20042;-87
2023/04/06 02:16:50;;;;;;;17.52;10.57;;;;;;;16.35;37.17;93405.25;4956025;28;20051;-88
2023/04/06 02:19:16;;;;;;;19.02;12.18;;;;;;;16.34;37.31;93417.41;4976214;28;20042;-88
2023/04/06 02:21:42;;;;;;;15.13;9.95;;;;;;;16.33;37.48;93416.66;4988134;28;20042;-88
2023/04/06 02:24:07;;;;;;;15.75;11.32;;;;;;;16.31;37.30;93418.41;4997216;28;20074;-88
2023/04/06 02:26:33;;;;;;;14.75;10.40;;;;;;;16.34;37.20;93420.13;4955500;28;20034;-88
2023/04/06 02:28:58;;;;;;;16.00;10.70;;;;;;;16.35;37.23;93416.91;4987505;28;20054;-88
2023/04/06 02:31:23;;;;;;;16.25;10.55;;;;;;;16.30;37.34;93409.47;4970907;28;20058;-88
2023/04/06 02:33:49;;;;;;;15.93;10.52;;;;;;;16.32;37.44;93411.69;4970964;28;20065;-88
2023/04/06 02:36:15;;;;;;;17.02;10.27;;;;;;;16.34;37.34;93414.69;5003536;28;20038;-88
2023/04/06 02:38:40;;;;;;;14.73;10.07;;;;;;;16.34;37.08;93415.41;4971469;28;20109;-87
2023/04/06 02:41:06;;;;;;;15.15;10.18;;;;;;;16.36;37.10;93417.66;4987241;28;20441;-88
2023/04/06 02:43:32;;;;;;;16.25;10.90;;;;;;;16.36;37.40;93409.47;5003858;28;20328;-89
2023/04/06 02:45:57;;;;;;;15.32;9.52;;;;;;;16.34;37.36;93409.97;4936451;28;20125;-88
2023/04/06 02:48:23;;;;;;;15.48;10.35;;;;;;;16.39;37.31;93417.41;4985008;28;20046;-89
2023/04/06 02:50:48;;;;;;;19.02;11.20;;;;;;;16.32;37.39;93408.97;4936116;28;20549;-88
2023/04/06 02:53:14;;;;;;;15.65;9.23;;;;;;;16.35;37.38;93413.44;4949902;28;20038;-88
2023/04/06 02:55:39;;;;;;;14.73;9.85;;;;;;;16.38;37.37;93415.91;4972933;28;20097;-88
2023/04/06 02:58:05;;;;;;;17.40;10.05;;;;;;;16.31;37.33;93410.94;4970128;28;20038;-88
2023/04/06 03:00:30;;;;;;;15.02;10.43;;;;;;;16.36;37.01;93415.66;5003661;28;20409;-89
2023/04/06 03:02:56;;;;;;;15.25;10.27;;;;;;;16.29;37.41;93418.88;4987009;28;20101;-89
2023/04/06 03:05:21;;;;;;;16.45;10.27;;;;;;;16.29;37.42;93418.88;4950654;28;20097;-89
2023/04/06 03:07:47;;;;;;;13.82;9.25;;;;;;;16.43;36.96;93423.34;4959748;28;20047;-88
2023/04/06 03:10:12;;;;;;;16.67;10.60;;;;;;;16.30;37.16;93419.63;4961557;28;20050;-88
2023/04/06 03:12:38;;;;;;;12.57;9.20;;;;;;;16.35;37.41;93419.63;4987195;28;20057;-88
2023/04/06 03:15:04;;;;;;;14.55;9.98;;;;;;;16.31;37.29;93415.66;4986566;28;20049;-87
2023/04/06 03:17:29;;;;;;;16.58;9.60;;;;;;;16.27;37.29;93426.06;5001024;28;20438;-87
2023/04/06 03:19:55;;;;;;;15.32;11.02;;;;;;;16.30;37.48;93414.91;4958970;28;20042;-88
2023/04/06 03:22:20;;;;;;;13.48;8.63;;;;;;;16.38;37.26;93429.56;4970171;28;20569;-89
2023/04/06 03:24:46;;;;;;;12.55;9.02;;;;;;;16.32;37.28;93428.06;4998958;28;20379;-89
2023/04/06 03:27:11;;;;;;;12.27;8.88;;;;;;;16.34;37.04;93422.84;4986087;28;20074;-88
2023/04/06 03:29:37;;;;;;;13.07;8.85;;;;;;;16.30;37.33;93423.09;4987162;28;20053;-89
2023/04/06 03:32:02;;;;;;;13.63;8.80;;;;;;;16.40;37.31;93423.59;4986646;28;20515;-88
2023/04/06 03:34:28;;;;;;;14.07;9.50;;;;;;;16.33;37.34;93418.66;4986581;28;20052;-88
2023/04/06 03:36:53;;;;;;;12.43;8.70;;;;;;;16.31;37.47;93416.41;5002893;28;20042;-89
2023/04/06 03:39:19;;;;;;;13.20;9.00;;;;;;;16.26;37.62;93424.59;4954558;28;20410;-87
2023/04/06 03:41:44;;;;;;;28.70;19.95;;;;;;;16.28;37.58;93427.56;4972056;28;20485;-86
2023/04/06 03:44:11;;;;;;;13.50;9.75;;;;;;;16.35;36.79;93422.38;4987362;28;20034;-85
2023/04/06 03:46:36;;;;;;;21.52;9.30;;;;;;;16.37;37.00;93413.69;4988980;28;20112;-89
2023/04/06 03:49:02;;;;;;;22.58;17.27;;;;;;;16.28;37.34;93420.13;4988542;28;20378;-87
2023/04/06 03:51:27;;;;;;;14.88;10.15;;;;;;;16.28;37.44;93424.84;4986875;28;20050;-88
2023/04/06 03:53:53;;;;;;;17.35;11.23;;;;;;;16.28;37.55;93411.94;4986615;28;20480;-88
2023/04/06 03:56:18;;;;;;;25.48;14.02;;;;;;;16.32;37.52;93433.53;4984892;28;20516;-88
2023/04/06 03:58:45;;;;;;;24.77;12.65;;;;;;;16.28;37.29;93425.59;4954491;28;20037;-88
2023/04/06 04:01:10;;;;;;;23.45;11.90;;;;;;;16.31;37.48;93424.59;4953742;28;20308;-88
2023/04/06 04:03:36;;;;;;;18.63;12.65;;;;;;;16.32;37.02;93425.34;4954712;28;20046;-88
2023/04/06 04:06:01;;;;;;;19.67;10.90;;;;;;;16.23;37.51;93434.53;4949859;28;20068;-88
2023/04/06 04:08:27;;;;;;;18.70;8.38;;;;;;;16.03;32.32;93426.56;4953718;28;20038;-88
2023/04/06 04:10:55;;;;;;;16.60;6.90;;;;;;;15.77;30.82;93433.00;4948114;28;20445;-88
2023/04/06 04:13:21;;;;;;;19.83;9.25;;;;;;;15.79;30.84;93437.97;4986108;28;20038;-88
2023/04/06 04:15:47;;;;;;;28.80;10.65;;;;;;;15.79;30.56;93435.22;4969580;28;20100;-88
2023/04/06 04:18:12;;;;;;;27.25;12.57;;;;;;;15.91;31.08;93439.44;4956431;28;20050;-88
2023/04/06 04:20:38;;;;;;;45.35;31.35;;;;;;;15.82;30.83;93439.66;4981041;28;20061;-87
2023/04/06 04:23:04;;;;;;;28.08;11.35;;;;;;;15.85;30.91;93437.94;4989916;28;20046;-87
2023/04/06 04:25:29;;;;;;;106.53;41.75;;;;;;;15.93;31.24;93441.69;4990173;28;20501;-88
2023/04/06 04:27:55;;;;;;;83.53;32.30;;;;;;;16.11;32.16;93441.19;4990605;28;20402;-91
2023/04/06 04:30:21;;;;;;;53.90;17.13;;;;;;;16.14;33.01;93439.47;4974039;28;20039;-87
2023/04/06 04:32:46;;;;;;;37.72;22.45;;;;;;;16.19;33.23;93450.38;4991014;28;20092;-87
2023/04/06 04:35:13;;;;;;;24.70;10.95;;;;;;;16.11;34.56;93454.84;4989789;28;20042;-88
2023/04/06 04:37:39;;;;;;;22.80;11.65;;;;;;;16.22;34.89;93454.13;4991242;28;20497;-90
2023/04/06 04:40:05;;;;;;;24.27;11.10;;;;;;;16.25;35.31;93464.75;4991712;28;20073;-90
2023/04/06 04:42:30;;;;;;;26.17;15.00;;;;;;;16.34;35.49;93461.78;4992063;28;20505;-89
2023/04/06 04:44:56;;;;;;;22.25;12.30;;;;;;;16.33;35.54;93465.75;4991639;28;20176;-88
2023/04/06 04:47:22;;;;;;;27.98;12.95;;;;;;;16.30;35.48;93466.75;4990157;28;20105;-91
2023/04/06 04:49:48;;;;;;;31.25;13.55;;;;;;;16.28;35.48;93463.78;4965760;28;20582;-90
2023/04/06 04:52:13;;;;;;;24.73;13.95;;;;;;;16.33;35.33;93462.28;5000291;28;20133;-92
2023/04/06 04:54:40;;;;;;;33.65;14.38;;;;;;;16.27;35.19;93469.72;4955927;28;20046;-91
2023/04/06 04:57:06;;;;;;;41.55;15.82;;;;;;;16.34;35.04;93464.53;4941121;28;20064;-90
2023/04/06 04:59:32;;;;;;;45.20;14.55;;;;;;;16.31;35.25;93470.97;4996234;28;20679;-90
2023/04/06 05:01:57;;;;;;;48.25;15.95;;;;;;;16.31;35.33;93475.69;4995445;28;20527;-89
2023/04/06 05:04:23;;;;;;;49.30;15.65;;;;;;;16.29;33.96;93475.44;4975681;28;20058;-89
2023/04/06 05:06:49;;;;;;;68.60;17.13;;;;;;;16.10;34.13;93477.88;4950313;28;20522;-89
2023/04/06 05:09:14;;;;;;;123.05;24.83;;;;;;;16.10;33.99;93486.81;4955455;28;20035;-89
2023/04/06 05:11:40;;;;;;;122.10;28.52;;;;;;;16.25;34.61;93475.66;4973653;28;20042;-88
2023/04/06 05:14:06;;;;;;;61.42;22.70;;;;;;;16.28;34.65;93487.56;4974089;28;20042;-90
2023/04/06 05:16:34;;;;;;;81.25;31.42;;;;;;;16.24;34.99;93471.44;4973849;28;20043;-90
2023/04/06 05:19:00;;;;;;;112.07;43.70;;;;;;;16.27;35.19;93477.91;4974097;28;20042;-89
2023/04/06 05:21:26;;;;;;;162.65;72.60;;;;;;;16.35;35.30;93479.66;4989386;28;20039;-90
2023/04/06 05:23:51;;;;;;;174.40;81.72;;;;;;;16.31;35.17;93475.69;4979088;28;20054;-91
2023/04/06 05:26:17;;;;;;;225.05;95.30;;;;;;;16.27;35.06;93478.66;4988402;28;20042;-90
2023/04/06 05:28:44;;;;;;;244.13;101.03;;;;;;;16.29;34.69;93475.44;4990503;28;20041;-91
2023/04/06 05:31:09;;;;;;;208.05;96.88;;;;;;;16.27;34.45;93478.66;4958361;28;20082;-91
2023/04/06 05:33:35;;;;;;;199.55;88.65;;;;;;;16.45;34.05;93472.69;4951254;28;20081;-92
2023/04/06 05:36:00;;;;;;;78.18;37.42;;;;;;;16.19;30.68;93474.94;4965286;28;20047;-91
2023/04/06 05:38:26;;;;;;;51.13;21.15;;;;;;;15.93;29.00;93472.41;4949384;28;20034;-89
2023/04/06 05:40:51;;;;;;;33.17;13.32;;;;;;;15.77;27.80;93473.88;4975535;28;20272;-91
2023/04/06 05:43:18;;;;;;;30.85;14.43;;;;;;;15.74;28.02;93479.56;4963225;28;20043;-90
2023/04/06 05:45:45;;;;;;;40.03;14.98;;;;;;;15.81;28.14;93481.78;4976976;28;20069;-90
2023/04/06 05:48:11;;;;;;;52.22;18.80;;;;;;;15.87;28.65;93487.25;4996723;28;20058;-92
2023/04/06 05:50:37;;;;;;;110.35;32.22;;;;;;;15.94;29.74;93478.63;4979021;28;20057;-91
2023/04/06 05:53:05;;;;;;;95.03;36.42;;;;;;;15.95;29.29;93474.66;4965502;28;20038;-92
2023/04/06 05:55:37;;;;;;;114.53;44.03;;;;;;;16.03;30.35;93478.38;4988870;28;20035;-91
2023/04/06 05:58:04;;;;;;;123.22;48.35;;;;;;;16.08;30.95;93483.84;5001480;28;20118;-94
2023/04/06 06:00:30;;;;;;;136.55;53.83;;;;;;;16.17;31.54;93482.13;4987883;28;20054;-92
2023/04/06 06:02:56;;;;;;;170.65;69.38;;;;;;;16.09;31.86;93485.31;4953034;28;20043;-94
2023/04/06 06:05:22;;;;;;;166.93;73.82;;;;;;;16.22;32.02;93486.84;4948666;28;20085;-93
2023/04/06 06:07:48;;;;;;;174.55;73.90;;;;;;;16.24;32.87;93485.09;4973624;28;20061;-93
2023/04/06 06:10:13;;;;;;;160.75;80.32;;;;;;;16.27;33.31;93484.09;4959855;28;20137;-93
2023/04/06 06:12:39;;;;;;;156.98;78.25;;;;;;;16.31;33.31;93484.59;4964449;28;20050;-92
2023/04/06 06:15:05;;;;;;;161.13;79.90;;;;;;;16.35;33.90;93485.09;4961609;28;20122;-93
2023/04/06 06:17:30;;;;;;;163.75;83.32;;;;;;;16.41;33.16;93488.59;4991995;28;20049;-93
2023/04/06 06:19:56;;;;;;;165.75;81.65;;;;;;;16.32;33.71;93486.09;4973843;28;20046;-91
2023/04/06 06:22:23;;;;;;;147.13;75.45;;;;;;;16.32;32.81;93480.63;4963045;28;20043;-93
2023/04/06 06:24:50;;;;;;;159.20;77.57;;;;;;;16.28;32.74;93482.13;4983827;28;20094;-93
2023/04/06 06:27:15;;;;;;;165.18;81.18;;;;;;;16.36;33.42;93477.66;4973360;28;20122;-93
2023/04/06 06:29:41;;;;;;;171.73;83.88;;;;;;;16.33;33.31;93486.84;5018526;23;20075;-93
2023/04/06 06:32:08;;;;;;;161.85;83.00;;;;;;;16.43;33.42;93479.91;5029033;28;20056;-92
2023/04/06 06:34:35;;;;;;;172.35;87.70;;;;;;;16.30;33.31;93483.13;5010377;28;20063;-92
2023/04/06 06:37:01;;;;;;;210.45;107.88;;;;;;;16.39;33.50;93474.69;5004837;28;20030;-92
2023/04/06 06:39:27;;;;;;;178.60;92.65;;;;;;;16.33;33.62;93481.38;5007234;28;20044;-92
2023/04/06 06:41:54;;;;;;;178.88;95.45;;;;;;;16.35;33.70;93479.66;5041683;28;20041;-93
2023/04/06 06:44:22;;;;;;;203.57;110.50;;;;;;;16.44;33.80;93482.16;5041314;28;20044;-93
2023/04/06 06:46:49;;;;;;;215.23;118.35;;;;;;;16.44;34.10;93473.97;5015619;28;20048;-92
2023/04/06 06:49:16;;;;;;;227.63;111.43;;;;;;;16.35;33.84;93485.09;5004649;28;20036;-92
2023/04/06 06:51:41;;;;;;;228.40;116.43;;;;;;;16.40;33.89;93486.34;4987921;28;20053;-92
2023/04/06 06:54:07;;;;;;;204.02;105.72;;;;;;;16.46;33.76;93487.81;5008845;28;20037;-93
2023/04/06 06:56:33;;;;;;;207.23;103.80;;;;;;;16.37;33.62;93495.53;4991028;28;20053;-91
2023/04/06 06:58:58;;;;;;;226.48;107.68;;;;;;;16.35;33.38;93487.09;4990855;28;20174;-92
2023/04/06 07:01:24;;;;;;;232.93;112.47;;;;;;;16.43;33.66;93493.56;5007392;28;20560;-91
2023/04/06 07:03:49;;;;;;;238.50;112.82;;;;;;;16.52;33.95;93490.56;5007903;28;20041;-92
2023/04/06 07:06:24;;;;;;;266.50;123.20;;;;;;;16.45;34.02;93488.34;4989966;28;20046;-93
2023/04/06 07:08:49;;;;;;;239.63;122.97;;;;;;;16.49;33.98;93499.00;5007699;28;20072;-92
2023/04/06 07:11:15;;;;;;;232.57;121.50;;;;;;;16.40;33.95;93491.81;4990139;28;20541;-91
2023/04/06 07:13:42;;;;;;;240.15;120.10;;;;;;;16.45;33.86;93491.06;4998646;28;20049;-93
2023/04/06 07:16:08;;;;;;;250.52;124.32;;;;;;;16.46;34.26;93506.19;4995989;28;20060;-92
2023/04/06 07:18:50;;;;;;;240.23;122.35;;;;;;;16.45;33.92;93504.72;4972689;28;20045;-94
2023/04/06 07:21:16;;;;;;;241.05;117.28;;;;;;;16.44;33.98;93501.25;4994518;28;20050;-89
2023/04/06 07:23:41;;;;;;;252.48;122.28;;;;;;;16.42;34.26;93502.97;5004612;28;20096;-89
2023/04/06 07:26:07;;;;;;;243.15;114.90;;;;;;;16.55;34.20;93502.47;4989811;28;20048;-89
2023/04/06 07:28:32;;;;;;;239.52;107.50;;;;;;;16.52;34.56;93508.91;5005184;28;20037;-89
2023/04/06 07:30:58;;;;;;;242.70;113.55;;;;;;;16.50;34.02;93511.41;5006293;28;20038;-89
2023/04/06 07:33:23;;;;;;;200.02;105.18;;;;;;;16.49;34.35;93509.91;4989136;28;20046;-91
2023/04/06 07:35:49;;;;;;;192.77;97.43;;;;;;;16.49;34.27;93512.63;5005892;28;20041;-90
2023/04/06 07:38:14;;;;;;;211.90;101.25;;;;;;;16.51;34.52;93510.91;4996472;28;20068;-88
2023/04/06 07:40:40;;;;;;;193.82;97.93;;;;;;;16.49;34.40;93513.38;4997770;28;20580;-89
2023/04/06 07:43:05;;;;;;;202.57;97.53;;;;;;;16.50;34.59;93505.94;5013378;28;20052;-91
2023/04/06 07:45:31;;;;;;;182.60;94.53;;;;;;;16.54;34.27;93509.16;5010018;28;20044;-87
2023/04/06 07:47:56;;;;;;;175.27;92.10;;;;;;;16.60;34.35;93512.66;5014077;28;20035;-89
2023/04/06 07:50:22;;;;;;;190.07;95.75;;;;;;;16.53;34.56;93505.69;4996704;28;20045;-91
2023/04/06 07:52:47;;;;;;;167.30;93.43;;;;;;;16.50;34.51;93503.22;4998077;28;20044;-88
2023/04/06 07:55:13;;;;;;;188.63;90.75;;;;;;;16.51;34.32;93499.25;5015587;28;20076;-89
2023/04/06 07:57:39;;;;;;;154.55;81.03;;;;;;;16.55;34.51;93495.03;4993374;28;20033;-90
2023/04/06 08:00:05;;;;;;;149.10;78.80;;;;;;;16.59;34.58;93497.50;5011339;28;20571;-90
2023/04/06 08:02:35;;;;;;;195.13;90.32;;;;;;;16.56;34.31;93501.97;5004006;28;20044;-90
2023/04/06 08:05:00;;;;;;;162.77;79.40;;;;;;;16.56;34.43;93496.53;5012752;28;20036;-89
2023/04/06 08:07:26;;;;;;;167.32;73.93;;;;;;;16.67;34.29;93485.63;5013771;28;20045;-88
2023/04/06 08:09:51;;;;;;;134.68;73.90;;;;;;;16.61;34.71;93498.50;5011366;28;20040;-89
2023/04/06 08:12:17;;;;;;;138.38;70.65;;;;;;;16.61;34.56;93495.03;5016043;28;20116;-88
2023/04/06 08:14:42;;;;;;;136.98;70.85;;;;;;;16.61;34.89;93498.50;4995066;28;20164;-88
2023/04/06 08:17:08;;;;;;;138.52;69.63;;;;;;;16.59;34.71;93497.50;4985440;28;20053;-90
2023/04/06 08:19:34;;;;;;;114.03;63.03;;;;;;;16.70;34.79;93492.06;5007993;28;20037;-90
2023/04/06 08:21:59;;;;;;;122.82;64.82;;;;;;;16.62;34.49;93493.81;5013133;28;20041;-90
2023/04/06 08:24:25;;;;;;;132.60;65.25;;;;;;;16.59;34.95;93501.00;4994739;28;20038;-90
2023/04/06 08:26:51;;;;;;;130.15;63.10;;;;;;;16.59;34.85;93500.25;4980272;28;20037;-91
2023/04/06 08:29:16;;;;;;;109.88;59.83;;;;;;;16.63;34.84;93500.75;4994401;28;20034;-90
2023/04/06 08:31:42;;;;;;;128.75;60.03;;;;;;;16.64;34.99;93486.63;4978784;28;20037;-88
2023/04/06 08:34:07;;;;;;;125.13;57.00;;;;;;;16.77;34.95;93492.31;5009720;28;20049;-89
2023/04/06 08:36:33;;;;;;;130.00;64.22;;;;;;;16.67;34.89;93493.81;5010414;28;20044;-90
2023/04/06 08:38:59;;;;;;;138.73;59.25;;;;;;;16.65;34.87;93490.09;5013966;28;20045;-91
2023/04/06 08:41:25;;;;;;;118.88;57.58;;;;;;;16.77;35.07;93483.38;4991983;28;20062;-90
2023/04/06 08:43:58;;;;;;;116.55;55.20;;;;;;;16.68;34.98;93486.38;5008952;28;20218;-89
2023/04/06 08:46:29;;;;;;;112.60;50.83;;;;;;;16.77;34.80;93481.41;5011850;28;20045;-90
2023/04/06 08:48:54;;;;;;;163.05;83.28;;;;;;;16.80;34.86;93493.31;5016321;28;20033;-90
2023/04/06 08:51:20;;;;;;;141.10;74.97;;;;;;;16.72;34.90;93489.59;5003627;28;20052;-91
2023/04/06 08:53:46;;;;;;;143.80;71.15;;;;;;;16.76;35.53;93492.81;5019540;28;20030;-90
2023/04/06 08:56:11;;;;;;;187.70;89.88;;;;;;;16.78;34.95;93496.53;5015312;28;20092;-90
2023/04/06 08:58:38;;;;;;;167.63;84.63;;;;;;;16.73;34.95;93485.63;5012919;28;20041;-90
2023/04/06 09:01:10;;;;;;;189.32;87.55;;;;;;;16.73;35.05;93494.56;5013848;28;20045;-91
2023/04/06 09:03:39;;;;;;;162.18;71.75;;;;;;;16.77;33.90;93492.31;5022873;28;20139;-90
2023/04/06 09:06:05;;;;;;;123.07;52.10;;;;;;;16.67;31.08;93490.34;4986160;28;20504;-89
2023/04/06 09:08:31;;;;;;;113.97;46.88;;;;;;;16.53;29.91;93491.31;4998286;28;20102;-89
2023/04/06 09:10:56;;;;;;;87.72;38.80;;;;;;;16.55;29.75;93494.28;4996858;28;20037;-89
2023/04/06 09:13:22;;;;;;;92.60;33.63;;;;;;;16.46;29.78;93485.09;5009791;28;20053;-89
2023/04/06 09:16:09;;;;;;;78.15;28.45;;;;;;;16.42;28.86;93494.78;5011803;28;20053;-89
2023/04/06 09:18:35;;;;;;;64.05;25.27;;;;;;;16.38;28.52;93489.56;5009697;28;20128;-89
2023/04/06 09:21:04;;;;;;;77.97;27.02;;;;;;;16.45;29.13;93488.34;5030031;28;20037;-89
2023/04/06 09:23:29;;;;;;;81.75;29.23;;;;;;;16.45;28.86;93480.88;4993407;28;20116;-88
2023/04/06 09:26:08;;;;;;;117.22;38.80;;;;;;;16.42;28.83;93486.59;5006441;28;20088;-88
2023/04/06 09:28:43;;;;;;;163.02;45.33;;;;;;;16.62;31.14;93474.69;5023547;28;20059;-88
2023/04/06 09:31:09;;;;;;;172.73;50.88;;;;;;;16.64;30.81;93474.97;5027990;28;20115;-89
2023/04/06 09:33:38;;;;;;;170.50;55.63;;;;;;;16.71;31.91;93469.75;5012330;28;20044;-84
2023/04/06 09:36:04;;;;;;;135.13;48.20;;;;;;;16.71;31.01;93474.44;5028492;28;20460;-86
2023/04/06 09:38:29;;;;;;;120.28;42.92;;;;;;;16.59;29.94;93462.03;5011374;28;20120;-84
2023/04/06 09:40:55;;;;;;;144.57;50.83;;;;;;;16.52;29.51;93471.47;5026721;28;20049;-83
2023/04/06 09:43:25;;;;;;;78.95;30.48;;;;;;;16.44;28.11;93470.50;5027191;28;20068;-84
2023/04/06 09:45:50;;;;;;;103.40;28.30;;;;;;;16.46;28.60;93473.44;5027453;28;20511;-84
2023/04/06 09:48:16;;;;;;;84.57;27.65;;;;;;;16.54;30.91;93476.44;5010574;28;20079;-84
2023/04/06 09:50:42;;;;;;;119.00;32.42;;;;;;;16.55;28.95;93467.00;4994494;28;20084;-84
2023/04/06 09:53:07;;;;;;;81.82;29.63;;;;;;;16.57;30.11;93470.72;4991050;28;20034;-84
2023/04/06 09:55:43;;;;;;;95.72;32.88;;;;;;;16.66;30.27;93464.31;5017679;28;20037;-85
2023/04/06 09:58:13;;;;;;;98.57;36.63;;;;;;;16.68;31.40;93473.47;4992275;28;20037;-85
2023/04/06 10:00:48;;;;;;;372.17;58.13;;;;;;;16.66;30.18;93462.31;5003923;28;20066;-84
2023/04/06 10:03:30;;;;;;;205.77;48.50;;;;;;;16.71;30.59;93463.53;5028154;28;20041;-85
2023/04/06 10:05:58;;;;;;;124.60;45.28;;;;;;;16.68;31.39;93465.28;5019420;28;20041;-84
2023/04/06 10:08:25;;;;;;;117.78;46.83;;;;;;;16.82;32.52;93471.72;4995327;28;20055;-85
2023/04/06 10:10:50;;;;;;;120.30;47.08;;;;;;;16.88;33.13;93460.81;5027545;28;20121;-85
2023/04/06 10:13:16;;;;;;;101.57;43.95;;;;;;;16.86;32.42;93472.22;5010466;28;20039;-86
2023/04/06 10:15:42;;;;;;;114.60;49.00;;;;;;;16.88;32.46;93456.09;5024725;28;20143;-85
2023/04/06 10:18:08;;;;;;;121.18;43.63;;;;;;;16.92;33.27;93453.81;5019391;28;20045;-86
2023/04/06 10:20:47;;;;;;;135.60;48.65;;;;;;;16.81;32.01;93462.03;4992266;28;20103;-87
2023/04/06 10:23:16;;;;;;;121.63;48.75;;;;;;;16.88;32.48;93456.09;5009477;28;20101;-84
2023/04/06 10:25:54;;;;;;;111.50;44.33;;;;;;;16.85;31.86;93454.34;5027118;28;20041;-84
2023/04/06 10:28:19;;;;;;;70.47;28.15;;;;;;;16.71;30.35;93456.09;4994676;28;20042;-86
2023/04/06 10:30:45;;;;;;;90.50;31.30;;;;;;;16.77;30.91;93453.34;4999420;28;20549;-85
2023/04/06 10:33:17;;;;;;;85.43;32.42;;;;;;;16.78;30.98;93450.13;5023057;28;20095;-85
2023/04/06 10:35:43;;;;;;;88.82;34.45;;;;;;;16.71;30.25;93449.88;5026280;28;20045;-85
2023/04/06 10:38:11;;;;;;;95.65;34.03;;;;;;;16.72;30.51;93452.13;5025951;28;20044;-84
2023/04/06 10:40:38;;;;;;;75.82;31.98;;;;;;;16.83;31.00;93439.72;5025579;28;20071;-86
2023/04/06 10:43:12;;;;;;;61.17;27.60;;;;;;;16.60;29.80;93436.25;5026425;28;20033;-85
2023/04/06 10:45:37;;;;;;;78.43;29.42;;;;;;;16.66;30.29;93445.19;4995484;28;20033;-86
2023/04/06 10:48:16;;;;;;;71.15;28.42;;;;;;;16.72;31.20;93435.00;5009178;28;20119;-85
2023/04/06 10:50:45;;;;;;;86.32;30.13;;;;;;;16.72;30.72;93429.53;5009584;28;20558;-85
2023/04/06 10:53:10;;;;;;;72.30;29.50;;;;;;;16.81;31.63;93436.72;5010430;28;20102;-85
2023/04/06 10:55:35;;;;;;;85.20;30.02;;;;;;;16.86;32.06;93428.53;5035893;28;20042;-85
2023/04/06 10:58:01;;;;;;;98.90;33.30;;;;;;;16.84;30.99;93433.75;5010493;28;20040;-85
2023/04/06 11:00:26;;;;;;;78.65;33.72;;;;;;;16.92;32.23;93431.97;5010208;28;20044;-85
2023/04/06 11:02:59;;;;;;;94.45;35.47;;;;;;;16.87;32.10;93438.22;5026699;28;20528;-85
2023/04/06 11:05:25;;;;;;;86.45;35.33;;;;;;;16.83;31.80;93431.50;5011149;28;20037;-85
2023/04/06 11:07:50;;;;;;;89.53;35.55;;;;;;;16.94;32.84;93434.94;5010465;28;20037;-85
2023/04/06 11:10:21;;;;;;;88.22;35.45;;;;;;;16.92;32.71;93434.69;4987205;28;20512;-85